sensor_id;sensor_type;location;lat;lon;timestamp;pressure;altitude;pressure_sealevel;temperature;humidity
78719;BME280;68046;53.334;9.538;2023-11-21T00:00:07;100669.63;;;8.72;100.00
78719;BME280;68046;53.334;9.538;2023-11-21T00:02:38;100676.56;;;8.69;100.00
78719;BME280;68046;53.334;9.538;2023-11-21T00:05:04;100678.97;;;8.63;100.00
78719;BME280;68046;53.334;9.538;2023-11-21T00:07:29;100669.53;;;8.67;100.00
78719;BME280;68046;53.334;9.538;2023-11-21T00:09:55;100671.28;;;8.68;100.00
78719;BME280;68046;53.334;9.538;2023-11-21T00:12:20;100674.78;;;8.68;100.00
78719;BME280;68046;53.334;9.538;2023-11-21T00:14:47;100672.13;;;8.67;100.00
78719;BME280;68046;53.334;9.538;2023-11-21T00:17:12;100676.56;;;8.69;100.00
78719;BME280;68046;53.334;9.538;2023-11-21T00:19:38;100678.97;;;8.63;100.00
78719;BME280;68046;53.334;9.538;2023-11-21T00:22:03;100677.28;;;8.64;100.00
78719;BME280;68046;53.334;9.538;2023-11-21T00:24:29;100681.50;;;8.60;100.00
78719;BME280;68046;53.334;9.538;2023-11-21T00:26:54;100691.16;;;8.63;100.00
78719;BME280;68046;53.334;9.538;2023-11-21T00:29:19;100688.53;;;8.61;100.00
78719;BME280;68046;53.334;9.538;2023-11-21T00:31:46;100691.16;;;8.63;100.00
78719;BME280;68046;53.334;9.538;2023-11-21T00:34:12;100684.97;;;8.59;100.00
78719;BME280;68046;53.334;9.538;2023-11-21T00:36:38;100691.16;;;8.63;100.00
78719;BME280;68046;53.334;9.538;2023-11-21T00:39:03;100688.78;;;8.70;100.00
78719;BME280;68046;53.334;9.538;2023-11-21T00:41:29;100683.38;;;8.64;100.00
78719;BME280;68046;53.334;9.538;2023-11-21T00:43:54;100687.03;;;8.69;100.00
78719;BME280;68046;53.334;9.538;2023-11-21T00:46:21;100690.28;;;8.62;100.00
78719;BME280;68046;53.334;9.538;2023-11-21T00:48:49;100691.09;;;8.60;100.00
78719;BME280;68046;53.334;9.538;2023-11-21T00:51:16;100698.03;;;8.58;100.00
78719;BME280;68046;53.334;9.538;2023-11-21T00:53:42;100698.06;;;8.59;100.00
78719;BME280;68046;53.334;9.538;2023-11-21T00:56:08;100719.72;;;8.55;100.00
78719;BME280;68046;53.334;9.538;2023-11-21T00:58:33;100712.16;;;8.64;100.00
78719;BME280;68046;53.334;9.538;2023-11-21T01:00:58;100719.03;;;8.61;100.00
78719;BME280;68046;53.334;9.538;2023-11-21T01:03:24;100724.25;;;8.61;100.00
78719;BME280;68046;53.334;9.538;2023-11-21T01:05:51;100719.94;;;8.63;100.00
78719;BME280;68046;53.334;9.538;2023-11-21T01:08:16;100729.41;;;8.59;100.00
78719;BME280;68046;53.334;9.538;2023-11-21T01:10:42;100738.94;;;8.57;100.00
78719;BME280;68046;53.334;9.538;2023-11-21T01:13:07;100739.25;;;8.66;100.00
78719;BME280;68046;53.334;9.538;2023-11-21T01:15:33;100745.97;;;8.58;100.00
78719;BME280;68046;53.334;9.538;2023-11-21T01:17:59;100746.88;;;8.60;100.00
78719;BME280;68046;53.334;9.538;2023-11-21T01:20:24;100751.19;;;8.58;100.00
78719;BME280;68046;53.334;9.538;2023-11-21T01:22:51;100752.19;;;8.63;100.00
78719;BME280;68046;53.334;9.538;2023-11-21T01:25:17;100756.41;;;8.58;100.00
78719;BME280;68046;53.334;9.538;2023-11-21T01:27:42;100765.09;;;8.57;100.00
78719;BME280;68046;53.334;9.538;2023-11-21T01:30:08;100772.81;;;8.53;100.00
78719;BME280;68046;53.334;9.538;2023-11-21T01:32:34;100775.31;;;8.50;100.00
78719;BME280;68046;53.334;9.538;2023-11-21T01:35:00;100771.94;;;8.54;100.00
78719;BME280;68046;53.334;9.538;2023-11-21T01:37:25;100778.16;;;8.57;100.00
78719;BME280;68046;53.334;9.538;2023-11-21T01:39:52;100781.72;;;8.59;100.00
78719;BME280;68046;53.334;9.538;2023-11-21T01:42:17;100781.63;;;8.56;100.00
78719;BME280;68046;53.334;9.538;2023-11-21T01:44:43;100779.44;;;8.41;100.00
78719;BME280;68046;53.334;9.538;2023-11-21T01:47:09;100790.59;;;8.37;100.00
78719;BME280;68046;53.334;9.538;2023-11-21T01:49:34;100786.34;;;8.39;100.00
78719;BME280;68046;53.334;9.538;2023-11-21T01:52:01;100797.56;;;8.37;100.00
78719;BME280;68046;53.334;9.538;2023-11-21T01:54:27;100785.22;;;8.33;100.00
78719;BME280;68046;53.334;9.538;2023-11-21T01:56:54;100794.00;;;8.35;100.00
78719;BME280;68046;53.334;9.538;2023-11-21T01:59:21;100793.81;;;8.29;100.00
78719;BME280;68046;53.334;9.538;2023-11-21T02:01:46;100800.47;;;8.19;100.00
78719;BME280;68046;53.334;9.538;2023-11-21T02:04:12;100805.75;;;8.20;100.00
78719;BME280;68046;53.334;9.538;2023-11-21T02:06:37;100800.47;;;8.19;100.00
78719;BME280;68046;53.334;9.538;2023-11-21T02:09:03;100813.59;;;8.20;100.00
78719;BME280;68046;53.334;9.538;2023-11-21T02:11:29;100826.34;;;8.11;100.00
78719;BME280;68046;53.334;9.538;2023-11-21T02:13:57;100823.72;;;8.11;100.00
78719;BME280;68046;53.334;9.538;2023-11-21T02:16:25;100829.31;;;7.95;100.00
78719;BME280;68046;53.334;9.538;2023-11-21T02:18:51;100831.84;;;7.93;100.00
78719;BME280;68046;53.334;9.538;2023-11-21T02:21:16;100832.72;;;7.94;100.00
78719;BME280;68046;53.334;9.538;2023-11-21T02:23:43;100842.00;;;7.84;100.00
78719;BME280;68046;53.334;9.538;2023-11-21T02:26:09;100845.13;;;7.74;100.00
78719;BME280;68046;53.334;9.538;2023-11-21T02:28:34;100849.25;;;7.67;100.00
78719;BME280;68046;53.334;9.538;2023-11-21T02:31:00;100868.56;;;7.72;100.00
78719;BME280;68046;53.334;9.538;2023-11-21T02:33:25;100868.19;;;7.62;100.00
78719;BME280;68046;53.334;9.538;2023-11-21T02:35:51;100875.38;;;7.67;100.00
78719;BME280;68046;53.334;9.538;2023-11-21T02:38:17;100872.69;;;7.66;100.00
78719;BME280;68046;53.334;9.538;2023-11-21T02:40:44;100869.78;;;7.58;100.00
78719;BME280;68046;53.334;9.538;2023-11-21T02:43:09;100877.91;;;7.66;100.00
78719;BME280;68046;53.334;9.538;2023-11-21T02:45:34;100882.06;;;7.61;100.00
78719;BME280;68046;53.334;9.538;2023-11-21T02:48:00;100889.97;;;7.62;100.00
78719;BME280;68046;53.334;9.538;2023-11-21T02:50:25;100881.16;;;7.59;100.00
78719;BME280;68046;53.334;9.538;2023-11-21T02:52:51;100883.78;;;7.60;100.00
78719;BME280;68046;53.334;9.538;2023-11-21T02:55:16;100890.56;;;7.55;100.00
78719;BME280;68046;53.334;9.538;2023-11-21T02:57:43;100892.72;;;7.43;100.00
78719;BME280;68046;53.334;9.538;2023-11-21T03:00:09;100906.47;;;7.37;100.00
78719;BME280;68046;53.334;9.538;2023-11-21T03:02:35;100902.25;;;7.41;100.00
78719;BME280;68046;53.334;9.538;2023-11-21T03:05:00;100891.72;;;7.39;100.00
78719;BME280;68046;53.334;9.538;2023-11-21T03:07:26;100900.78;;;7.49;100.00
78719;BME280;68046;53.334;9.538;2023-11-21T03:09:51;100906.47;;;7.37;100.00
78719;BME280;68046;53.334;9.538;2023-11-21T03:12:17;100902.84;;;7.33;100.00
78719;BME280;68046;53.334;9.538;2023-11-21T03:14:43;100905.63;;;7.38;100.00
78719;BME280;68046;53.334;9.538;2023-11-21T03:17:09;100911.00;;;7.43;100.00
78719;BME280;68046;53.334;9.538;2023-11-21T03:19:34;100921.38;;;7.17;100.00
78719;BME280;68046;53.334;9.538;2023-11-21T03:22:00;100926.91;;;7.04;100.00
78719;BME280;68046;53.334;9.538;2023-11-21T03:24:25;100937.97;;;7.19;100.00
78719;BME280;68046;53.334;9.538;2023-11-21T03:26:51;100936.94;;;7.16;100.00
78719;BME280;68046;53.334;9.538;2023-11-21T03:29:17;100935.41;;;7.21;100.00
78719;BME280;68046;53.334;9.538;2023-11-21T03:31:44;100935.94;;;7.12;100.00
78719;BME280;68046;53.334;9.538;2023-11-21T03:34:14;100948.94;;;7.10;100.00
78719;BME280;68046;53.334;9.538;2023-11-21T03:36:39;100951.56;;;7.10;100.00
78719;BME280;68046;53.334;9.538;2023-11-21T03:39:05;100948.06;;;7.10;100.00
78719;BME280;68046;53.334;9.538;2023-11-21T03:41:30;100963.19;;;6.98;100.00
78719;BME280;68046;53.334;9.538;2023-11-21T03:43:56;100958.59;;;7.13;100.00
78719;BME280;68046;53.334;9.538;2023-11-21T03:46:21;100973.88;;;7.04;100.00
78719;BME280;68046;53.334;9.538;2023-11-21T03:48:48;100970.22;;;6.99;100.00
78719;BME280;68046;53.334;9.538;2023-11-21T03:51:14;100971.75;;;6.94;100.00
78719;BME280;68046;53.334;9.538;2023-11-21T03:53:39;100974.19;;;6.89;100.00
78719;BME280;68046;53.334;9.538;2023-11-21T03:56:09;100975.81;;;6.87;100.00
78719;BME280;68046;53.334;9.538;2023-11-21T03:58:34;100976.47;;;6.81;100.00
78719;BME280;68046;53.334;9.538;2023-11-21T04:00:59;100984.22;;;6.80;100.00
78719;BME280;68046;53.334;9.538;2023-11-21T04:03:25;100989.88;;;6.70;100.00
78719;BME280;68046;53.334;9.538;2023-11-21T04:05:52;100992.69;;;6.74;100.00
78719;BME280;68046;53.334;9.538;2023-11-21T04:08:17;100992.56;;;6.71;100.00
78719;BME280;68046;53.334;9.538;2023-11-21T04:10:42;101001.16;;;6.69;100.00
78719;BME280;68046;53.334;9.538;2023-11-21T04:13:08;101000.19;;;6.67;100.00
78719;BME280;68046;53.334;9.538;2023-11-21T04:15:33;101007.72;;;6.59;100.00
78719;BME280;68046;53.334;9.538;2023-11-21T04:17:59;100996.81;;;6.69;100.00
78719;BME280;68046;53.334;9.538;2023-11-21T04:20:24;101005.34;;;6.65;100.00
78719;BME280;68046;53.334;9.538;2023-11-21T04:22:51;101012.59;;;6.51;100.00
78719;BME280;68046;53.334;9.538;2023-11-21T04:25:17;101015.78;;;6.65;100.00
78719;BME280;68046;53.334;9.538;2023-11-21T04:27:43;101025.41;;;6.68;100.00
78719;BME280;68046;53.334;9.538;2023-11-21T04:30:10;101024.34;;;6.62;100.00
78719;BME280;68046;53.334;9.538;2023-11-21T04:32:35;101031.16;;;6.59;100.00
78719;BME280;68046;53.334;9.538;2023-11-21T04:35:01;101043.91;;;6.53;100.00
78719;BME280;68046;53.334;9.538;2023-11-21T04:37:27;101045.13;;;6.61;100.00
78719;BME280;68046;53.334;9.538;2023-11-21T04:39:53;101047.31;;;6.71;100.00
78719;BME280;68046;53.334;9.538;2023-11-21T04:42:19;101050.09;;;6.55;100.00
78719;BME280;68046;53.334;9.538;2023-11-21T04:44:44;101046.13;;;6.44;100.00
78719;BME280;68046;53.334;9.538;2023-11-21T04:47:10;101051.72;;;6.53;100.00
78719;BME280;68046;53.334;9.538;2023-11-21T04:49:35;101056.53;;;6.44;100.00
78719;BME280;68046;53.334;9.538;2023-11-21T04:52:01;101057.31;;;6.41;100.00
78719;BME280;68046;53.334;9.538;2023-11-21T04:54:26;101063.28;;;6.38;100.00
78719;BME280;68046;53.334;9.538;2023-11-21T04:56:53;101072.00;;;6.39;100.00
78719;BME280;68046;53.334;9.538;2023-11-21T04:59:19;101076.22;;;6.37;100.00
78719;BME280;68046;53.334;9.538;2023-11-21T05:01:44;101080.00;;;6.44;100.00
78719;BME280;68046;53.334;9.538;2023-11-21T05:04:09;101082.69;;;6.45;100.00
78719;BME280;68046;53.334;9.538;2023-11-21T05:06:35;101090.41;;;6.44;100.00
78719;BME280;68046;53.334;9.538;2023-11-21T05:09:00;101089.63;;;6.45;100.00
78719;BME280;68046;53.334;9.538;2023-11-21T05:11:26;101092.13;;;6.43;100.00
78719;BME280;68046;53.334;9.538;2023-11-21T05:13:53;101097.28;;;6.41;100.00
78719;BME280;68046;53.334;9.538;2023-11-21T05:16:19;101100.16;;;6.48;100.00
78719;BME280;68046;53.334;9.538;2023-11-21T05:18:44;101100.78;;;6.42;100.00
78719;BME280;68046;53.334;9.538;2023-11-21T05:21:10;101109.44;;;6.41;100.00
78719;BME280;68046;53.334;9.538;2023-11-21T05:23:35;101105.59;;;6.33;100.00
78719;BME280;68046;53.334;9.538;2023-11-21T05:26:00;101112.78;;;6.38;100.00
78719;BME280;68046;53.334;9.538;2023-11-21T05:28:26;101113.19;;;6.28;100.00
78719;BME280;68046;53.334;9.538;2023-11-21T05:30:53;101128.53;;;6.22;100.00
78719;BME280;68046;53.334;9.538;2023-11-21T05:33:18;101121.84;;;6.27;100.00
78719;BME280;68046;53.334;9.538;2023-11-21T05:35:43;101125.28;;;6.26;100.00
78719;BME280;68046;53.334;9.538;2023-11-21T05:38:09;101135.88;;;6.31;100.00
78719;BME280;68046;53.334;9.538;2023-11-21T05:40:34;101128.81;;;6.28;100.00
78719;BME280;68046;53.334;9.538;2023-11-21T05:43:00;101128.78;;;6.27;100.00
78719;BME280;68046;53.334;9.538;2023-11-21T05:45:25;101130.41;;;6.25;100.00
78719;BME280;68046;53.334;9.538;2023-11-21T05:47:52;101136.59;;;6.27;100.00
78719;BME280;68046;53.334;9.538;2023-11-21T05:50:17;101139.72;;;6.19;100.00
78719;BME280;68046;53.334;9.538;2023-11-21T05:52:44;101151.72;;;6.16;100.00
78719;BME280;68046;53.334;9.538;2023-11-21T05:55:10;101159.38;;;6.13;100.00
78719;BME280;68046;53.334;9.538;2023-11-21T05:57:36;101165.16;;;6.25;100.00
78719;BME280;68046;53.334;9.538;2023-11-21T06:00:03;101172.31;;;6.29;100.00
78719;BME280;68046;53.334;9.538;2023-11-21T06:02:30;101175.56;;;6.25;100.00
78719;BME280;68046;53.334;9.538;2023-11-21T06:04:57;101171.47;;;6.30;100.00
78719;BME280;68046;53.334;9.538;2023-11-21T06:07:22;101172.06;;;6.25;100.00
78719;BME280;68046;53.334;9.538;2023-11-21T06:09:47;101181.91;;;6.30;100.00
78719;BME280;68046;53.334;9.538;2023-11-21T06:12:13;101185.06;;;6.23;100.00
78719;BME280;68046;53.334;9.538;2023-11-21T06:14:38;101193.53;;;6.19;100.00
78719;BME280;68046;53.334;9.538;2023-11-21T06:17:04;101201.91;;;6.31;100.00
78719;BME280;68046;53.334;9.538;2023-11-21T06:19:29;101204.50;;;6.31;100.00
78719;BME280;68046;53.334;9.538;2023-11-21T06:21:56;101206.97;;;6.28;100.00
78719;BME280;68046;53.334;9.538;2023-11-21T06:24:21;101209.19;;;6.38;100.00
78719;BME280;68046;53.334;9.538;2023-11-21T06:26:47;101212.13;;;6.27;100.00
78719;BME280;68046;53.334;9.538;2023-11-21T06:29:12;101220.28;;;6.34;100.00
78719;BME280;68046;53.334;9.538;2023-11-21T06:31:38;101227.16;;;6.32;100.00
78719;BME280;68046;53.334;9.538;2023-11-21T06:34:03;101227.16;;;6.32;100.00
78719;BME280;68046;53.334;9.538;2023-11-21T06:36:29;101232.13;;;6.28;100.00
78719;BME280;68046;53.334;9.538;2023-11-21T06:38:55;101241.66;;;6.27;100.00
78719;BME280;68046;53.334;9.538;2023-11-21T06:41:21;101234.84;;;6.29;100.00
78719;BME280;68046;53.334;9.538;2023-11-21T06:43:46;101245.53;;;6.35;100.00
78719;BME280;68046;53.334;9.538;2023-11-21T06:46:12;101246.00;;;6.27;100.00
78719;BME280;68046;53.334;9.538;2023-11-21T06:48:37;101255.38;;;6.23;100.00
78719;BME280;68046;53.334;9.538;2023-11-21T06:51:03;101249.06;;;6.18;100.00
78719;BME280;68046;53.334;9.538;2023-11-21T06:53:29;101254.19;;;6.16;100.00
78719;BME280;68046;53.334;9.538;2023-11-21T06:55:55;101257.75;;;6.18;100.00
78719;BME280;68046;53.334;9.538;2023-11-21T06:58:21;101263.50;;;6.11;100.00
78719;BME280;68046;53.334;9.538;2023-11-21T07:00:46;101270.72;;;6.17;100.00
78719;BME280;68046;53.334;9.538;2023-11-21T07:03:12;101274.28;;;6.19;100.00
78719;BME280;68046;53.334;9.538;2023-11-21T07:05:37;101273.34;;;6.17;100.00
78719;BME280;68046;53.334;9.538;2023-11-21T07:08:03;101279.34;;;6.16;100.00
78719;BME280;68046;53.334;9.538;2023-11-21T07:10:28;101291.56;;;6.17;100.00
78719;BME280;68046;53.334;9.538;2023-11-21T07:12:55;101295.50;;;6.09;100.00
78719;BME280;68046;53.334;9.538;2023-11-21T07:15:20;101308.38;;;6.06;100.00
78719;BME280;68046;53.334;9.538;2023-11-21T07:17:46;101310.25;;;6.08;100.00
78719;BME280;68046;53.334;9.538;2023-11-21T07:20:11;101317.47;;;6.14;100.00
78719;BME280;68046;53.334;9.538;2023-11-21T07:22:37;101317.75;;;6.20;100.00
78719;BME280;68046;53.334;9.538;2023-11-21T07:25:03;101325.19;;;6.12;100.00
78719;BME280;68046;53.334;9.538;2023-11-21T07:27:28;101315.91;;;6.17;100.00
78719;BME280;68046;53.334;9.538;2023-11-21T07:29:55;101323.56;;;6.14;100.00
78719;BME280;68046;53.334;9.538;2023-11-21T07:32:20;101329.56;;;6.13;100.00
78719;BME280;68046;53.334;9.538;2023-11-21T07:34:46;101339.78;;;6.09;100.00
78719;BME280;68046;53.334;9.538;2023-11-21T07:37:11;101344.31;;;6.13;100.00
78719;BME280;68046;53.334;9.538;2023-11-21T07:39:37;101347.06;;;6.16;100.00
78719;BME280;68046;53.334;9.538;2023-11-21T07:42:03;101348.72;;;6.14;100.00
78719;BME280;68046;53.334;9.538;2023-11-21T07:44:28;101356.44;;;6.12;100.00
78719;BME280;68046;53.334;9.538;2023-11-21T07:46:55;101353.00;;;6.13;100.00
78719;BME280;68046;53.334;9.538;2023-11-21T07:49:21;101357.31;;;6.13;100.00
78719;BME280;68046;53.334;9.538;2023-11-21T07:51:46;101361.88;;;6.17;100.00
78719;BME280;68046;53.334;9.538;2023-11-21T07:54:11;101355.13;;;6.21;100.00
78719;BME280;68046;53.334;9.538;2023-11-21T07:56:37;101361.22;;;6.21;100.00
78719;BME280;68046;53.334;9.538;2023-11-21T07:59:02;101359.44;;;6.20;100.00
78719;BME280;68046;53.334;9.538;2023-11-21T08:01:28;101358.59;;;6.21;100.00
78719;BME280;68046;53.334;9.538;2023-11-21T08:03:55;101359.44;;;6.20;100.00
78719;BME280;68046;53.334;9.538;2023-11-21T08:06:20;101369.09;;;6.23;100.00
78719;BME280;68046;53.334;9.538;2023-11-21T08:08:45;101369.09;;;6.23;100.00
78719;BME280;68046;53.334;9.538;2023-11-21T08:11:11;101374.44;;;6.26;100.00
78719;BME280;68046;53.334;9.538;2023-11-21T08:13:36;101384.97;;;6.27;100.00
78719;BME280;68046;53.334;9.538;2023-11-21T08:16:02;101389.50;;;6.31;100.00
78719;BME280;68046;53.334;9.538;2023-11-21T08:18:27;101395.69;;;6.33;100.00
78719;BME280;68046;53.334;9.538;2023-11-21T08:20:55;101393.97;;;6.34;100.00
78719;BME280;68046;53.334;9.538;2023-11-21T08:23:21;101396.97;;;6.41;100.00
78719;BME280;68046;53.334;9.538;2023-11-21T08:25:46;101393.81;;;6.49;100.00
78719;BME280;68046;53.334;9.538;2023-11-21T08:28:12;101401.34;;;6.43;100.00
78719;BME280;68046;53.334;9.538;2023-11-21T08:30:38;101399.72;;;6.45;100.00
78719;BME280;68046;53.334;9.538;2023-11-21T08:33:03;101400.81;;;6.50;100.00
78719;BME280;68046;53.334;9.538;2023-11-21T08:35:29;101410.03;;;6.43;100.00
78719;BME280;68046;53.334;9.538;2023-11-21T08:37:55;101405.28;;;6.52;100.00
78719;BME280;68046;53.334;9.538;2023-11-21T08:40:21;101408.88;;;6.54;100.00
78719;BME280;68046;53.334;9.538;2023-11-21T08:42:47;101421.00;;;6.54;100.00
78719;BME280;68046;53.334;9.538;2023-11-21T08:45:12;101425.38;;;6.55;100.00
78719;BME280;68046;53.334;9.538;2023-11-21T08:47:38;101431.50;;;6.55;100.00
78719;BME280;68046;53.334;9.538;2023-11-21T08:50:04;101434.34;;;6.60;100.00
78719;BME280;68046;53.334;9.538;2023-11-21T08:52:29;101444.75;;;6.60;100.00
78719;BME280;68046;53.334;9.538;2023-11-21T08:54:56;101447.53;;;6.63;100.00
78719;BME280;68046;53.334;9.538;2023-11-21T08:57:22;101460.47;;;6.61;100.00
78719;BME280;68046;53.334;9.538;2023-11-21T08:59:47;101467.41;;;6.61;100.00
78719;BME280;68046;53.334;9.538;2023-11-21T09:02:13;101468.28;;;6.61;100.00
78719;BME280;68046;53.334;9.538;2023-11-21T09:04:38;101475.50;;;6.67;100.00
78719;BME280;68046;53.334;9.538;2023-11-21T09:07:03;101474.34;;;6.78;100.00
78719;BME280;68046;53.334;9.538;2023-11-21T09:09:29;101484.09;;;6.82;100.00
78719;BME280;68046;53.334;9.538;2023-11-21T09:11:56;101481.28;;;6.78;100.00
78719;BME280;68046;53.334;9.538;2023-11-21T09:14:21;101483.19;;;6.82;100.00
78719;BME280;68046;53.334;9.538;2023-11-21T09:16:46;101483.19;;;6.82;100.00
78719;BME280;68046;53.334;9.538;2023-11-21T09:19:12;101483.44;;;6.86;100.00
78719;BME280;68046;53.334;9.538;2023-11-21T09:21:37;101492.16;;;6.87;100.00
78719;BME280;68046;53.334;9.538;2023-11-21T09:24:03;101495.78;;;6.91;100.00
78719;BME280;68046;53.334;9.538;2023-11-21T09:26:29;101486.78;;;6.84;100.00
78719;BME280;68046;53.334;9.538;2023-11-21T09:28:56;101494.00;;;6.90;100.00
78719;BME280;68046;53.334;9.538;2023-11-21T09:31:21;101497.66;;;6.93;100.00
78719;BME280;68046;53.334;9.538;2023-11-21T09:33:47;101513.38;;;6.95;100.00
78719;BME280;68046;53.334;9.538;2023-11-21T09:36:12;101520.53;;;6.99;100.00
78719;BME280;68046;53.334;9.538;2023-11-21T09:38:38;101521.81;;;7.07;100.00
78719;BME280;68046;53.334;9.538;2023-11-21T09:41:04;101526.25;;;7.09;100.00
78719;BME280;68046;53.334;9.538;2023-11-21T09:43:32;101532.25;;;7.07;100.00
78719;BME280;68046;53.334;9.538;2023-11-21T09:46:00;101534.38;;;7.16;100.00
78719;BME280;68046;53.334;9.538;2023-11-21T09:48:27;101534.75;;;7.23;100.00
78719;BME280;68046;53.334;9.538;2023-11-21T09:50:54;101538.94;;;7.20;100.00
78719;BME280;68046;53.334;9.538;2023-11-21T09:53:20;101529.44;;;7.22;100.00
78719;BME280;68046;53.334;9.538;2023-11-21T09:55:47;101533.78;;;7.21;100.00
78719;BME280;68046;53.334;9.538;2023-11-21T09:58:14;101538.19;;;7.22;100.00
78719;BME280;68046;53.334;9.538;2023-11-21T10:00:40;101538.34;;;7.25;100.00
78719;BME280;68046;53.334;9.538;2023-11-21T10:03:08;101538.53;;;7.30;100.00
78719;BME280;68046;53.334;9.538;2023-11-21T10:05:34;101539.97;;;7.23;100.00
78719;BME280;68046;53.334;9.538;2023-11-21T10:07:59;101539.84;;;7.20;100.00
78719;BME280;68046;53.334;9.538;2023-11-21T10:10:25;101547.66;;;7.20;100.00
78719;BME280;68046;53.334;9.538;2023-11-21T10:12:55;101547.56;;;7.19;100.00
78719;BME280;68046;53.334;9.538;2023-11-21T10:15:22;101552.59;;;7.14;100.00
78719;BME280;68046;53.334;9.538;2023-11-21T10:17:49;101553.56;;;7.16;100.00
78719;BME280;68046;53.334;9.538;2023-11-21T10:20:16;101555.63;;;7.23;100.00
78719;BME280;68046;53.334;9.538;2023-11-21T10:22:42;101562.78;;;7.27;100.00
78719;BME280;68046;53.334;9.538;2023-11-21T10:25:08;101566.06;;;7.23;100.00
78719;BME280;68046;53.334;9.538;2023-11-21T10:27:34;101575.81;;;7.27;100.00
78719;BME280;68046;53.334;9.538;2023-11-21T10:30:00;101580.75;;;7.21;100.00
78719;BME280;68046;53.334;9.538;2023-11-21T10:32:28;101575.53;;;7.21;100.00
78719;BME280;68046;53.334;9.538;2023-11-21T10:34:56;101583.66;;;7.27;100.00
78719;BME280;68046;53.334;9.538;2023-11-21T10:37:23;101572.78;;;7.18;100.00
78719;BME280;68046;53.334;9.538;2023-11-21T10:39:48;101576.81;;;7.12;100.00
78719;BME280;68046;53.334;9.538;2023-11-21T10:42:14;101579.03;;;7.04;100.00
78719;BME280;68046;53.334;9.538;2023-11-21T10:44:41;101568.81;;;7.08;100.00
78719;BME280;68046;53.334;9.538;2023-11-21T10:47:08;101578.59;;;7.13;100.00
78719;BME280;68046;53.334;9.538;2023-11-21T10:49:33;101579.66;;;7.16;100.00
78719;BME280;68046;53.334;9.538;2023-11-21T10:51:59;101576.22;;;7.17;100.00
78719;BME280;68046;53.334;9.538;2023-11-21T10:54:26;101580.53;;;7.35;100.00
78719;BME280;68046;53.334;9.538;2023-11-21T10:57:00;101583.34;;;7.21;100.00
78719;BME280;68046;53.334;9.538;2023-11-21T10:59:28;101573.47;;;7.14;100.00
78719;BME280;68046;53.334;9.538;2023-11-21T11:01:54;101582.91;;;7.12;100.00
78719;BME280;68046;53.334;9.538;2023-11-21T11:04:24;101577.53;;;7.27;100.00
78719;BME280;68046;53.334;9.538;2023-11-21T11:06:54;101578.59;;;7.30;100.00
78719;BME280;68046;53.334;9.538;2023-11-21T11:09:20;101588.72;;;7.24;100.00
78719;BME280;68046;53.334;9.538;2023-11-21T11:11:47;101585.47;;;7.28;100.00
78719;BME280;68046;53.334;9.538;2023-11-21T11:14:13;101591.72;;;7.32;100.00
78719;BME280;68046;53.334;9.538;2023-11-21T11:16:40;101598.88;;;7.18;100.00
78719;BME280;68046;53.334;9.538;2023-11-21T11:19:06;101600.97;;;7.25;100.00
78719;BME280;68046;53.334;9.538;2023-11-21T11:21:38;101600.81;;;7.22;100.00
78719;BME280;68046;53.334;9.538;2023-11-21T11:24:21;101602.59;;;7.23;100.00
78719;BME280;68046;53.334;9.538;2023-11-21T11:26:54;101600.06;;;7.25;100.00
78719;BME280;68046;53.334;9.538;2023-11-21T11:29:30;101602.75;;;7.26;100.00
78719;BME280;68046;53.334;9.538;2023-11-21T11:32:07;101607.72;;;7.22;100.00
78719;BME280;68046;53.334;9.538;2023-11-21T11:34:36;101621.16;;;7.29;100.00
78719;BME280;68046;53.334;9.538;2023-11-21T11:37:06;101617.81;;;7.32;100.00
78719;BME280;68046;53.334;9.538;2023-11-21T11:39:35;101621.06;;;7.28;100.00
78719;BME280;68046;53.334;9.538;2023-11-21T11:42:06;101629.53;;;7.22;100.00
78719;BME280;68046;53.334;9.538;2023-11-21T11:44:47;101625.94;;;7.20;100.00
78719;BME280;68046;53.334;9.538;2023-11-21T11:47:13;101629.53;;;7.22;100.00
78719;BME280;68046;53.334;9.538;2023-11-21T11:49:55;101624.66;;;7.30;100.00
78719;BME280;68046;53.334;9.538;2023-11-21T11:52:32;101628.53;;;7.20;100.00
78719;BME280;68046;53.334;9.538;2023-11-21T11:54:59;101622.66;;;7.24;100.00
78719;BME280;68046;53.334;9.538;2023-11-21T11:57:26;101625.69;;;7.16;100.00
78719;BME280;68046;53.334;9.538;2023-11-21T12:00:07;101625.63;;;7.14;100.00
78719;BME280;68046;53.334;9.538;2023-11-21T12:02:34;101629.22;;;7.16;100.00
78719;BME280;68046;53.334;9.538;2023-11-21T12:04:59;101624.47;;;7.25;100.00
78719;BME280;68046;53.334;9.538;2023-11-21T12:07:24;101627.88;;;7.24;100.00
78719;BME280;68046;53.334;9.538;2023-11-21T12:10:04;101636.22;;;7.17;100.00
78719;BME280;68046;53.334;9.538;2023-11-21T12:12:31;101640.97;;;7.08;100.00
78719;BME280;68046;53.334;9.538;2023-11-21T12:14:57;101636.38;;;7.20;100.00
78719;BME280;68046;53.334;9.538;2023-11-21T12:17:22;101645.53;;;7.30;100.00
78719;BME280;68046;53.334;9.538;2023-11-21T12:19:48;101643.91;;;7.32;100.00
78719;BME280;68046;53.334;9.538;2023-11-21T12:22:13;101647.41;;;7.32;100.00
78719;BME280;68046;53.334;9.538;2023-11-21T12:24:39;101650.03;;;7.32;100.00
78719;BME280;68046;53.334;9.538;2023-11-21T12:27:05;101651.97;;;7.37;100.00
78719;BME280;68046;53.334;9.538;2023-11-21T12:29:32;101666.66;;;7.17;100.00
78719;BME280;68046;53.334;9.538;2023-11-21T12:31:57;101677.41;;;7.06;100.00
78719;BME280;68046;53.334;9.538;2023-11-21T12:34:23;101683.56;;;7.07;100.00
78719;BME280;68046;53.334;9.538;2023-11-21T12:36:48;101681.16;;;7.12;100.00
78719;BME280;68046;53.334;9.538;2023-11-21T12:39:14;101676.84;;;7.12;100.00
78719;BME280;68046;53.334;9.538;2023-11-21T12:41:39;101687.28;;;7.12;100.00
78719;BME280;68046;53.334;9.538;2023-11-21T12:44:09;101692.44;;;7.10;100.00